createdAt,value
2023-05-15T00:01:43.388Z,1.20
2023-05-15T00:04:16.853Z,1.70
2023-05-15T00:06:44.632Z,1.80
2023-05-15T00:09:18.841Z,1.50
2023-05-15T00:11:52.268Z,4.70
2023-05-15T00:14:25.656Z,1.70
2023-05-15T00:17:03.061Z,1.90
2023-05-15T00:19:36.949Z,2.30
2023-05-15T00:21:59.523Z,1.70
2023-05-15T00:24:23.328Z,0.80
2023-05-15T00:26:47.367Z,2.00
2023-05-15T00:29:21.034Z,1.40
2023-05-15T00:31:55.121Z,1.10
2023-05-15T00:34:30.045Z,1.40
2023-05-15T00:37:04.702Z,1.20
2023-05-15T00:39:38.906Z,0.70
2023-05-15T00:42:03.622Z,3.30
2023-05-15T00:44:28.876Z,2.10
2023-05-15T00:46:52.748Z,1.30
2023-05-15T00:49:28.686Z,1.80
2023-05-15T00:51:54.322Z,2.80
2023-05-15T00:54:20.086Z,2.50
2023-05-15T00:56:55.938Z,1.50
2023-05-15T00:59:19.468Z,2.20
2023-05-15T01:01:53.507Z,0.90
2023-05-15T01:04:27.380Z,1.20
2023-05-15T01:06:58.412Z,4.00
2023-05-15T01:09:27.132Z,4.90
2023-05-15T01:12:02.554Z,2.90
2023-05-15T01:14:28.646Z,2.50
2023-05-15T01:17:02.694Z,1.20
2023-05-15T01:19:37.017Z,1.20
2023-05-15T01:22:45.179Z,2.00
2023-05-15T01:25:56.001Z,1.80
2023-05-15T01:28:34.334Z,0.60
2023-05-15T01:31:12.575Z,2.00
2023-05-15T01:33:51.282Z,2.00
2023-05-15T01:36:30.385Z,1.50
2023-05-15T01:39:06.854Z,0.80
2023-05-15T01:41:45.752Z,2.00
2023-05-15T01:44:22.953Z,1.50
2023-05-15T01:46:53.338Z,1.50
2023-05-15T01:49:30.956Z,1.10
2023-05-15T01:51:58.388Z,1.30
2023-05-15T01:54:33.316Z,1.00
2023-05-15T01:57:00.933Z,1.30
2023-05-15T01:59:26.653Z,1.70
2023-05-15T02:02:02.390Z,0.50
2023-05-15T02:04:36.735Z,1.10
2023-05-15T02:07:16.442Z,1.60
2023-05-15T02:09:41.803Z,1.40
2023-05-15T02:12:19.791Z,0.90
2023-05-15T02:14:58.611Z,2.70
2023-05-15T02:17:32.620Z,1.40
2023-05-15T02:20:11.591Z,1.40
2023-05-15T02:22:38.201Z,1.00
2023-05-15T02:24:53.417Z,1.10
2023-05-15T02:27:17.408Z,1.10
2023-05-15T02:29:58.812Z,1.90
2023-05-15T02:32:43.961Z,3.40
2023-05-15T02:35:22.694Z,2.60
2023-05-15T02:38:00.137Z,1.10
2023-05-15T02:40:24.582Z,0.50
2023-05-15T02:42:53.228Z,1.20
2023-05-15T02:45:23.156Z,1.30
2023-05-15T02:47:47.072Z,1.40
2023-05-15T02:50:21.850Z,2.30
2023-05-15T02:52:50.131Z,1.00
2023-05-15T02:55:24.775Z,0.90
2023-05-15T02:57:53.545Z,0.70
2023-05-15T03:00:52.466Z,1.80
2023-05-15T03:02:47.706Z,0.50
2023-05-15T03:05:22.265Z,2.10
2023-05-15T03:07:45.502Z,2.40
2023-05-15T03:10:12.035Z,2.60
2023-05-15T03:13:05.877Z,1.10
2023-05-15T03:15:39.529Z,1.30
2023-05-15T03:21:02.712Z,1.50
2023-05-15T03:23:34.596Z,2.20
2023-05-15T03:26:00.768Z,1.10
2023-05-15T03:28:33.553Z,0.60
2023-05-15T03:31:00.720Z,2.10
2023-05-15T03:33:35.071Z,4.30
2023-05-15T03:35:58.702Z,2.10
2023-05-15T03:38:32.495Z,2.00
2023-05-15T03:40:56.130Z,1.30
2023-05-15T03:43:20.378Z,1.60
2023-05-15T03:45:45.508Z,3.40
2023-05-15T03:48:08.577Z,1.60
2023-05-15T03:50:43.781Z,4.90
2023-05-15T03:53:17.140Z,3.00
2023-05-15T03:55:41.936Z,2.40
2023-05-15T03:57:59.082Z,2.60
2023-05-15T04:00:32.393Z,5.30
2023-05-15T04:03:05.853Z,2.80
2023-05-15T04:08:13.589Z,1.60
2023-05-15T04:10:39.013Z,2.70
2023-05-15T04:13:05.189Z,1.50
2023-05-15T04:15:32.962Z,3.00
2023-05-15T04:18:06.664Z,2.00
2023-05-15T04:20:34.898Z,1.90
2023-05-15T04:25:40.902Z,2.10
2023-05-15T04:28:16.229Z,2.60
2023-05-15T04:30:50.604Z,2.10
2023-05-15T04:33:25.069Z,4.10
2023-05-15T04:35:54.317Z,1.30
2023-05-15T04:38:10.715Z,2.40
2023-05-15T04:43:14.301Z,1.30
2023-05-15T04:45:38.749Z,3.00
2023-05-15T04:48:06.429Z,1.30
2023-05-15T04:50:39.909Z,1.40
2023-05-15T04:52:59.453Z,2.20
2023-05-15T04:55:33.812Z,1.40
2023-05-15T04:57:55.026Z,1.70
2023-05-15T05:00:30.488Z,3.30
2023-05-15T05:03:05.898Z,1.30
2023-05-15T05:05:32.530Z,1.50
2023-05-15T05:07:57.546Z,4.10
2023-05-15T05:10:31.754Z,2.70
2023-05-15T05:13:06.353Z,4.40
2023-05-15T05:15:29.093Z,2.10
2023-05-15T05:18:04.279Z,1.20
2023-05-15T05:20:37.843Z,3.60
2023-05-15T05:23:11.881Z,2.60
2023-05-15T05:25:45.848Z,2.60
2023-05-15T05:28:20.084Z,2.10
2023-05-15T05:30:54.776Z,2.80
2023-05-15T05:33:29.123Z,3.70
2023-05-15T05:35:52.943Z,1.60
2023-05-15T05:38:27.637Z,3.90
2023-05-15T05:41:02.490Z,5.70
2023-05-15T05:43:34.686Z,3.00
2023-05-15T05:45:57.512Z,4.80
2023-05-15T05:51:05.698Z,7.30
2023-05-15T05:53:40.058Z,3.70
2023-05-15T05:56:14.086Z,2.60
2023-05-15T05:58:48.676Z,2.70
2023-05-15T06:01:25.947Z,6.30
2023-05-15T06:03:59.792Z,3.20
2023-05-15T06:06:33.921Z,3.30
2023-05-15T06:09:00.726Z,4.10
2023-05-15T06:11:34.577Z,2.80
2023-05-15T06:14:09.555Z,5.20
2023-05-15T06:16:43.288Z,1.60
2023-05-15T06:19:18.344Z,4.50
2023-05-15T06:21:45.736Z,20.10
2023-05-15T06:24:08.503Z,1.70
2023-05-15T06:26:28.794Z,2.80
2023-05-15T06:29:03.855Z,4.00
2023-05-15T06:31:26.930Z,3.80
2023-05-15T06:34:00.792Z,1.30
2023-05-15T06:36:35.112Z,4.50
2023-05-15T06:39:11.983Z,5.30
2023-05-15T06:41:44.424Z,1.90
2023-05-15T06:44:17.932Z,3.50
2023-05-15T06:46:54.589Z,2.30
2023-05-15T06:49:28.692Z,1.90
2023-05-15T06:52:02.753Z,1.80
2023-05-15T06:54:25.826Z,4.30
2023-05-15T06:57:01.152Z,4.50
2023-05-15T06:59:36.955Z,0.90
2023-05-15T07:02:10.882Z,1.80
2023-05-15T07:04:45.571Z,4.80
2023-05-15T07:07:08.179Z,2.10
2023-05-15T07:09:42.326Z,2.70
2023-05-15T07:12:17.592Z,2.90
2023-05-15T07:14:52.016Z,0.90
2023-05-15T07:17:26.605Z,1.30
2023-05-15T07:19:54.071Z,0.90
2023-05-15T07:22:31.427Z,1.40
2023-05-15T07:25:09.102Z,0.70
2023-05-15T07:27:43.013Z,3.50
2023-05-15T07:30:21.274Z,4.00
2023-05-15T07:32:55.478Z,2.60
2023-05-15T07:35:29.201Z,0.30
2023-05-15T07:38:04.458Z,2.10
2023-05-15T07:40:31.302Z,1.60
2023-05-15T07:42:54.041Z,2.70
2023-05-15T07:45:28.676Z,0.80
2023-05-15T07:48:02.613Z,2.70
2023-05-15T07:50:38.081Z,2.30
2023-05-15T07:53:12.408Z,0.80
2023-05-15T07:55:47.734Z,1.60
2023-05-15T07:58:21.952Z,1.50
2023-05-15T08:00:57.653Z,1.70
2023-05-15T08:03:31.854Z,1.30
2023-05-15T08:06:06.077Z,2.20
2023-05-15T08:08:40.521Z,2.20
2023-05-15T08:11:14.418Z,2.30
2023-05-15T08:13:48.081Z,0.90
2023-05-15T08:16:22.015Z,0.90
2023-05-15T08:18:59.801Z,1.70
2023-05-15T08:21:26.253Z,1.50
2023-05-15T08:24:00.213Z,1.10
2023-05-15T08:26:34.229Z,9.60
2023-05-15T08:29:08.102Z,0.40
2023-05-15T08:31:41.705Z,0.40
2023-05-15T08:34:15.600Z,2.30
2023-05-15T08:36:42.338Z,2.70
2023-05-15T08:39:16.972Z,2.00
2023-05-15T08:41:56.416Z,0.60
2023-05-15T08:44:29.740Z,3.30
2023-05-15T08:47:04.742Z,0.70
2023-05-15T08:49:47.511Z,2.00
2023-05-15T08:52:22.238Z,1.60
2023-05-15T08:54:58.039Z,0.90
2023-05-15T08:57:33.072Z,1.40
2023-05-15T09:00:08.949Z,2.70
2023-05-15T09:02:35.722Z,0.90
2023-05-15T09:05:12.378Z,3.30
2023-05-15T09:07:48.290Z,1.20
2023-05-15T09:10:22.518Z,2.30
2023-05-15T09:12:53.882Z,3.20
2023-05-15T09:15:26.157Z,2.10
2023-05-15T09:18:01.551Z,18.90
2023-05-15T09:20:35.972Z,48.20
2023-05-15T09:23:03.520Z,31.50
2023-05-15T09:25:54.100Z,26.00
2023-05-15T09:28:39.759Z,31.20
2023-05-15T09:31:13.193Z,27.20
2023-05-15T09:33:41.903Z,31.40
2023-05-15T09:36:11.313Z,40.30
2023-05-15T09:38:50.566Z,30.80
2023-05-15T09:41:31.636Z,34.20
2023-05-15T09:44:04.974Z,35.30
2023-05-15T09:46:41.848Z,38.50
2023-05-15T09:49:17.083Z,44.60
2023-05-15T09:51:53.436Z,35.40
2023-05-15T09:54:31.359Z,34.70
2023-05-15T09:57:15.062Z,37.80
2023-05-15T09:59:53.012Z,33.10
2023-05-15T10:02:33.372Z,26.00
2023-05-15T10:05:15.189Z,33.30
2023-05-15T10:07:39.416Z,28.90
2023-05-15T10:10:03.350Z,31.00
2023-05-15T10:12:37.932Z,27.10
2023-05-15T10:15:14.817Z,23.20
2023-05-15T10:17:51.737Z,28.30
2023-05-15T10:20:27.448Z,29.50
2023-05-15T10:23:02.002Z,44.00
2023-05-15T10:25:42.361Z,69.90
2023-05-15T10:28:17.849Z,82.90
2023-05-15T10:30:42.885Z,88.30
2023-05-15T10:33:18.573Z,70.90
2023-05-15T10:35:54.532Z,56.40
2023-05-15T10:38:22.785Z,80.80
2023-05-15T10:40:47.885Z,67.60
2023-05-15T10:43:18.676Z,66.20
2023-05-15T10:45:43.085Z,89.80
2023-05-15T10:48:13.617Z,54.80
2023-05-15T10:50:39.792Z,52.00
2023-05-15T10:53:15.991Z,59.90
2023-05-15T10:55:51.776Z,37.90
2023-05-15T10:58:29.341Z,49.20
2023-05-15T11:01:04.390Z,33.50
2023-05-15T11:03:49.669Z,22.80
2023-05-15T11:06:19.070Z,33.00
2023-05-15T11:08:46.401Z,38.90
2023-05-15T11:11:10.790Z,42.40
2023-05-15T11:13:53.332Z,39.90
2023-05-15T11:17:02.683Z,46.10
2023-05-15T11:19:59.423Z,34.60
2023-05-15T11:22:39.860Z,43.50
2023-05-15T11:25:15.016Z,75.30
2023-05-15T11:27:49.689Z,73.50
2023-05-15T11:30:26.992Z,57.50
2023-05-15T11:33:04.967Z,57.10
2023-05-15T11:35:30.632Z,34.70
2023-05-15T11:38:05.952Z,36.00
2023-05-15T11:40:50.393Z,35.90
2023-05-15T11:43:29.037Z,35.90
2023-05-15T11:45:54.140Z,32.50
2023-05-15T11:48:40.543Z,30.50
2023-05-15T11:51:23.060Z,33.90
2023-05-15T11:53:58.150Z,25.00
2023-05-15T11:56:32.730Z,38.10
2023-05-15T11:59:07.532Z,28.40
2023-05-15T12:01:48.939Z,31.40
2023-05-15T12:04:24.745Z,29.90
2023-05-15T12:07:00.940Z,31.50
2023-05-15T12:09:37.416Z,25.80
2023-05-15T12:12:16.144Z,32.40
2023-05-15T12:14:49.970Z,32.80
2023-05-15T12:17:24.557Z,27.60
2023-05-15T12:19:49.769Z,24.10
2023-05-15T12:22:23.978Z,33.40
2023-05-15T12:24:48.873Z,32.30
2023-05-15T12:27:24.758Z,49.00
2023-05-15T12:29:59.434Z,31.30
2023-05-15T12:32:35.029Z,39.60
2023-05-15T12:35:11.365Z,33.40
2023-05-15T12:37:45.829Z,21.40
2023-05-15T12:40:24.233Z,25.40
2023-05-15T12:43:00.196Z,31.30
2023-05-15T12:48:05.601Z,36.90
2023-05-15T12:50:40.998Z,37.10
2023-05-15T12:53:06.235Z,41.90
2023-05-15T12:55:44.745Z,39.70
2023-05-15T12:58:20.774Z,41.70
2023-05-15T13:00:59.930Z,42.90
2023-05-15T13:03:35.497Z,43.80
2023-05-15T13:06:10.123Z,44.70
2023-05-15T13:08:44.253Z,34.40
2023-05-15T13:13:52.712Z,31.80
2023-05-15T13:16:28.079Z,32.30
2023-05-15T13:18:54.722Z,35.40
2023-05-15T13:21:17.668Z,30.50
2023-05-15T13:23:52.848Z,32.80
2023-05-15T13:26:26.476Z,30.90
2023-05-15T13:29:00.690Z,27.50
2023-05-15T13:31:35.888Z,33.30
2023-05-15T13:34:09.616Z,27.50
2023-05-15T13:36:32.523Z,30.60
2023-05-15T13:39:05.908Z,22.70
2023-05-15T13:41:32.863Z,28.10
2023-05-15T13:44:07.618Z,21.30
2023-05-15T13:46:42.144Z,21.50
2023-05-15T13:49:09.178Z,32.00
2023-05-15T13:51:43.322Z,26.30
2023-05-15T13:54:17.564Z,25.30
2023-05-15T13:56:45.544Z,29.50
2023-05-15T13:59:18.536Z,30.50
2023-05-15T14:01:41.686Z,35.40
2023-05-15T14:04:14.925Z,22.10
2023-05-15T14:06:49.827Z,32.60
2023-05-15T14:09:13.297Z,36.50
2023-05-15T14:11:46.731Z,32.20
2023-05-15T14:14:56.493Z,23.50
2023-05-15T14:17:09.220Z,27.30
2023-05-15T14:19:44.997Z,37.30
2023-05-15T14:22:18.559Z,29.20
2023-05-15T14:24:54.968Z,29.00
2023-05-15T14:27:31.119Z,29.80
2023-05-15T14:30:06.057Z,33.10
2023-05-15T14:32:33.648Z,33.80
2023-05-15T14:35:09.290Z,28.40
2023-05-15T14:37:44.347Z,24.10
2023-05-15T14:40:19.204Z,24.20
2023-05-15T14:42:52.180Z,23.80
2023-05-15T14:45:17.474Z,20.70
2023-05-15T14:47:39.848Z,25.40
2023-05-15T14:50:04.450Z,30.60
2023-05-15T14:52:38.122Z,33.60
2023-05-15T14:55:13.912Z,18.30
2023-05-15T14:57:50.447Z,24.20
2023-05-15T15:00:20.729Z,19.30
2023-05-15T15:02:47.673Z,24.50
2023-05-15T15:05:22.020Z,29.40
2023-05-15T15:08:10.115Z,26.30
2023-05-15T15:10:46.088Z,42.90
2023-05-15T15:13:18.860Z,20.50
2023-05-15T15:15:53.122Z,33.60
2023-05-15T15:18:26.847Z,36.80
2023-05-15T15:21:00.996Z,18.40
2023-05-15T15:23:35.080Z,25.80
2023-05-15T15:26:08.452Z,31.30
2023-05-15T15:28:43.411Z,32.50
2023-05-15T15:31:20.684Z,21.90
2023-05-15T15:33:55.159Z,30.40
2023-05-15T15:36:17.569Z,38.40
2023-05-15T15:38:52.264Z,33.20
2023-05-15T15:41:26.527Z,29.50
2023-05-15T15:43:59.661Z,32.50
2023-05-15T15:46:34.859Z,28.60
2023-05-15T15:49:09.090Z,21.70
2023-05-15T15:54:20.310Z,20.40
2023-05-15T15:56:54.884Z,16.00
2023-05-15T15:59:29.450Z,20.90
2023-05-15T16:01:54.973Z,20.10
2023-05-15T16:04:28.912Z,25.90
2023-05-15T16:07:02.304Z,19.00
2023-05-15T16:09:37.781Z,25.30
2023-05-15T16:12:12.472Z,38.10
2023-05-15T16:14:47.093Z,28.60
2023-05-15T16:17:22.138Z,24.00
2023-05-15T16:19:58.152Z,28.80
2023-05-15T16:22:32.898Z,29.30
2023-05-15T16:25:08.754Z,26.00
2023-05-15T16:27:42.311Z,31.50
2023-05-15T16:30:19.155Z,29.20
2023-05-15T16:33:04.746Z,17.20
2023-05-15T16:37:51.500Z,18.30
2023-05-15T16:40:28.417Z,30.30
2023-05-15T16:43:02.628Z,32.20
2023-05-15T16:48:05.833Z,17.80
2023-05-15T16:50:41.831Z,28.60
2023-05-15T16:53:16.616Z,21.80
2023-05-15T16:55:51.905Z,30.00
2023-05-15T16:58:24.980Z,32.40
2023-05-15T17:00:59.340Z,24.20
2023-05-15T17:03:34.201Z,28.30
2023-05-15T17:06:09.411Z,20.60
2023-05-15T17:08:43.801Z,24.40
2023-05-15T17:11:17.784Z,23.20
2023-05-15T17:13:51.831Z,29.40
2023-05-15T17:16:27.214Z,26.90
2023-05-15T17:19:01.295Z,16.10
2023-05-15T17:21:35.458Z,28.00
2023-05-15T17:24:09.889Z,23.30
2023-05-15T17:26:43.612Z,31.80
2023-05-15T17:29:25.949Z,26.70
2023-05-15T17:32:00.791Z,20.80
2023-05-15T17:34:34.330Z,18.00
2023-05-15T17:37:09.003Z,27.30
2023-05-15T17:39:43.536Z,19.40
2023-05-15T17:42:19.084Z,22.00
2023-05-15T17:44:53.652Z,17.50
2023-05-15T17:47:21.120Z,24.80
2023-05-15T17:49:54.041Z,23.10
2023-05-15T17:52:28.182Z,18.80
2023-05-15T17:55:02.961Z,16.40
2023-05-15T17:57:36.866Z,16.80
2023-05-15T18:00:13.475Z,18.90
2023-05-15T18:02:28.720Z,17.20
2023-05-15T18:05:03.493Z,20.40
2023-05-15T18:07:30.868Z,25.00
2023-05-15T18:10:04.872Z,18.60
2023-05-15T18:12:40.337Z,21.00
2023-05-15T18:15:15.386Z,16.70
2023-05-15T18:17:49.644Z,23.30
2023-05-15T18:20:13.450Z,20.90
2023-05-15T18:22:47.194Z,16.70
2023-05-15T18:25:21.207Z,19.40
2023-05-15T18:27:55.804Z,20.80
2023-05-15T18:30:30.165Z,18.20
2023-05-15T18:33:05.035Z,34.60
2023-05-15T18:35:40.541Z,34.00
2023-05-15T18:38:14.182Z,12.80
2023-05-15T18:40:51.862Z,26.30
2023-05-15T18:43:25.842Z,21.70
2023-05-15T18:46:04.251Z,18.30
2023-05-15T18:48:38.369Z,16.60
2023-05-15T18:51:02.779Z,19.50
2023-05-15T18:53:37.468Z,20.00
2023-05-15T18:56:12.502Z,22.80
2023-05-15T18:58:48.631Z,27.90
2023-05-15T19:01:21.914Z,31.20
2023-05-15T19:03:55.380Z,27.30
2023-05-15T19:06:29.854Z,37.20
2023-05-15T19:09:02.985Z,23.90
2023-05-15T19:11:30.128Z,23.20
2023-05-15T19:14:03.825Z,39.80
2023-05-15T19:16:38.590Z,20.00
2023-05-15T19:19:06.716Z,21.40
2023-05-15T19:21:43.315Z,32.90
2023-05-15T19:24:21.522Z,35.40
2023-05-15T19:26:44.859Z,19.90
2023-05-15T19:29:18.673Z,28.90
2023-05-15T19:31:46.861Z,27.90
2023-05-15T19:37:08.041Z,29.80
2023-05-15T19:39:35.059Z,29.70
2023-05-15T19:42:08.908Z,23.20
2023-05-15T19:44:35.760Z,35.90
2023-05-15T19:46:57.695Z,26.10
2023-05-15T19:49:33.579Z,26.70
2023-05-15T19:51:57.613Z,28.90
2023-05-15T19:54:23.448Z,20.40
2023-05-15T19:56:57.368Z,17.90
2023-05-15T19:59:31.842Z,27.20
2023-05-15T20:04:54.901Z,17.60
2023-05-15T20:07:30.897Z,19.60
2023-05-15T20:10:04.803Z,22.10
2023-05-15T20:12:28.748Z,21.10
2023-05-15T20:15:02.827Z,25.70
2023-05-15T20:17:36.888Z,15.90
2023-05-15T20:20:00.761Z,20.80
2023-05-15T20:22:35.947Z,19.50
2023-05-15T20:25:10.503Z,13.00
2023-05-15T20:27:44.700Z,16.20
2023-05-15T20:30:19.548Z,10.20
2023-05-15T20:32:53.188Z,13.10
2023-05-15T20:35:22.208Z,14.20
2023-05-15T20:37:55.228Z,13.80
2023-05-15T20:40:18.367Z,16.30
2023-05-15T20:42:53.477Z,13.10
2023-05-15T20:45:28.818Z,15.50
2023-05-15T20:48:02.839Z,10.10
2023-05-15T20:50:37.888Z,12.20
2023-05-15T20:53:10.903Z,11.10
2023-05-15T20:55:45.009Z,14.30
2023-05-15T20:58:18.658Z,16.80
2023-05-15T21:00:53.447Z,13.00
2023-05-15T21:03:16.019Z,14.80
2023-05-15T21:05:50.499Z,20.20
2023-05-15T21:08:23.448Z,16.70
2023-05-15T21:10:58.510Z,19.00
2023-05-15T21:13:33.025Z,21.30
2023-05-15T21:16:08.792Z,23.80
2023-05-15T21:18:43.504Z,19.90
2023-05-15T21:21:09.216Z,22.70
2023-05-15T21:23:42.994Z,24.80
2023-05-15T21:26:16.657Z,21.80
2023-05-15T21:28:50.665Z,21.50
2023-05-15T21:31:24.440Z,19.60
2023-05-15T21:33:57.793Z,25.70
2023-05-15T21:36:32.378Z,26.60
2023-05-15T21:38:59.801Z,16.80
2023-05-15T21:41:35.592Z,18.00
2023-05-15T21:44:09.220Z,15.10
2023-05-15T21:46:43.076Z,11.40
2023-05-15T21:49:05.861Z,20.20
2023-05-15T21:51:39.973Z,25.70
2023-05-15T21:54:13.663Z,22.50
2023-05-15T21:56:48.077Z,13.50
2023-05-15T21:59:22.734Z,15.70
2023-05-15T22:01:45.837Z,14.90
2023-05-15T22:04:19.809Z,16.70
2023-05-15T22:06:58.808Z,15.60
2023-05-15T22:09:32.969Z,19.90
2023-05-15T22:12:07.258Z,22.40
2023-05-15T22:14:54.569Z,13.70
2023-05-15T22:17:26.602Z,17.50
2023-05-15T22:20:08.422Z,14.10
2023-05-15T22:22:46.566Z,14.10
2023-05-15T22:25:21.598Z,15.20
2023-05-15T22:27:55.621Z,11.60
2023-05-15T22:30:29.930Z,14.10
2023-05-15T22:33:02.988Z,8.30
2023-05-15T22:35:38.253Z,13.10
2023-05-15T22:38:12.687Z,16.90
2023-05-15T22:40:46.059Z,8.70
2023-05-15T22:43:20.438Z,13.70
2023-05-15T22:45:55.837Z,9.30
2023-05-15T22:48:30.106Z,13.50
2023-05-15T22:51:03.667Z,19.80
2023-05-15T22:53:39.720Z,12.90
2023-05-15T22:56:15.221Z,12.40
2023-05-15T22:58:49.305Z,14.10
2023-05-15T23:01:23.692Z,11.40
2023-05-15T23:03:57.107Z,6.20
2023-05-15T23:06:35.907Z,10.90
2023-05-15T23:09:10.117Z,9.50
2023-05-15T23:11:44.979Z,5.80
2023-05-15T23:14:18.757Z,7.90
2023-05-15T23:22:29.074Z,10.10
2023-05-15T23:25:03.324Z,11.50
2023-05-15T23:27:36.418Z,14.70
2023-05-15T23:30:13.025Z,9.20
2023-05-15T23:32:46.966Z,15.70
2023-05-15T23:35:24.573Z,13.70
2023-05-15T23:37:58.271Z,15.20
2023-05-15T23:42:42.248Z,15.80
2023-05-15T23:45:18.691Z,14.00
2023-05-15T23:47:54.004Z,10.10
2023-05-15T23:50:28.443Z,10.30
2023-05-15T23:53:03.075Z,9.00
2023-05-15T23:55:38.843Z,21.20
2023-05-15T23:58:13.082Z,14.80
